Time;durP1;ratioP1;P1;durP2;ratioP2;P2;SDS_P1;SDS_P2;PMS_P1;PMS_P2;Temp;Humidity;BMP_temperature;BMP_pressure;BME280_temperature;BME280_humidity;BME280_pressure;Samples;Min_cycle;Max_cycle;Signal;HPM_P1;HPM_P2
2022/04/27 00:00:30;;;;;;;5.57;3.95;;;9.50;93.30;;;;;;5075861;28;20059;-80
2022/04/27 00:02:56;;;;;;;5.80;4.50;;;9.50;93.30;;;;;;5099560;28;20032;-78
2022/04/27 00:05:23;;;;;;;5.97;4.28;;;9.50;93.60;;;;;;5071060;28;20027;-79
2022/04/27 00:07:48;;;;;;;5.80;3.85;;;9.50;93.70;;;;;;5082862;28;20028;-78
2022/04/27 00:10:14;;;;;;;5.65;4.78;;;9.50;93.70;;;;;;5083384;28;20020;-79
2022/04/27 00:12:40;;;;;;;5.20;3.92;;;9.40;93.70;;;;;;5086175;28;20038;-80
2022/04/27 00:15:07;;;;;;;5.72;4.05;;;9.40;93.70;;;;;;5070520;28;20032;-79
2022/04/27 00:17:36;;;;;;;4.80;3.63;;;9.40;93.70;;;;;;5082527;28;20467;-79
2022/04/27 00:20:02;;;;;;;7.30;4.30;;;9.40;93.70;;;;;;5085737;28;20036;-80
2022/04/27 00:22:27;;;;;;;6.28;4.55;;;9.40;93.90;;;;;;5087403;28;20024;-78
2022/04/27 00:24:53;;;;;;;5.25;4.10;;;9.30;93.90;;;;;;5090921;28;20113;-79
2022/04/27 00:27:18;;;;;;;6.32;4.93;;;9.20;94.10;;;;;;5073597;28;20037;-82
2022/04/27 00:29:43;;;;;;;6.93;5.18;;;9.10;94.30;;;;;;5091709;28;20054;-80
2022/04/27 00:32:09;;;;;;;8.93;5.20;;;9.10;94.60;;;;;;5085743;28;20024;-79
2022/04/27 00:34:34;;;;;;;6.63;4.97;;;9.10;94.60;;;;;;5106030;28;20047;-78
2022/04/27 00:37:00;;;;;;;5.93;4.65;;;9.10;94.60;;;;;;5086142;28;20031;-80
2022/04/27 00:39:26;;;;;;;5.95;4.55;;;9.10;94.70;;;;;;5100450;28;20024;-79
2022/04/27 00:42:00;;;;;;;6.85;4.70;;;9.10;94.70;;;;;;5092228;28;20028;-80
2022/04/27 00:44:30;;;;;;;7.15;4.35;;;9.00;94.90;;;;;;5091780;28;20020;-79
2022/04/27 00:46:56;;;;;;;5.47;3.95;;;9.00;94.80;;;;;;5095454;28;20120;-80
2022/04/27 00:49:21;;;;;;;7.18;4.80;;;9.00;94.80;;;;;;5091132;28;20016;-79
2022/04/27 00:51:48;;;;;;;5.63;4.20;;;9.00;94.80;;;;;;5089069;28;20065;-80
2022/04/27 00:54:14;;;;;;;8.73;4.80;;;9.00;94.80;;;;;;5071078;28;20111;-79
2022/04/27 00:56:41;;;;;;;7.97;4.32;;;9.10;94.80;;;;;;5091181;28;20115;-79
2022/04/27 00:59:07;;;;;;;6.30;4.32;;;9.10;94.80;;;;;;5104756;28;20031;-79
2022/04/27 01:01:35;;;;;;;5.90;3.85;;;9.10;94.90;;;;;;5097360;28;20365;-80
2022/04/27 01:04:01;;;;;;;8.10;4.82;;;9.10;94.80;;;;;;5091703;28;20026;-79
2022/04/27 01:06:29;;;;;;;7.25;4.15;;;9.10;94.80;;;;;;5090958;28;20111;-80
2022/04/27 01:08:54;;;;;;;7.30;5.32;;;9.10;94.70;;;;;;5095666;28;20030;-78
2022/04/27 01:11:20;;;;;;;6.07;4.43;;;9.10;94.80;;;;;;5093489;28;20020;-79
2022/04/27 01:13:45;;;;;;;5.10;4.40;;;9.20;94.90;;;;;;5094049;28;20119;-81
2022/04/27 01:16:11;;;;;;;4.35;3.88;;;9.20;94.80;;;;;;5093264;28;20024;-78
2022/04/27 01:18:36;;;;;;;9.32;3.95;;;9.20;94.80;;;;;;5089007;28;20032;-79
2022/04/27 01:21:05;;;;;;;5.03;4.13;;;9.10;94.70;;;;;;5096758;28;20032;-79
2022/04/27 01:23:31;;;;;;;5.13;3.92;;;9.20;94.70;;;;;;5091569;28;20020;-78
2022/04/27 01:26:05;;;;;;;6.57;4.40;;;9.20;94.60;;;;;;5085102;28;20035;-80
2022/04/27 01:28:31;;;;;;;6.22;4.30;;;9.20;94.60;;;;;;5092556;28;20074;-80
2022/04/27 01:31:00;;;;;;;5.60;4.25;;;9.20;94.50;;;;;;5089449;28;20039;-80
2022/04/27 01:33:26;;;;;;;5.00;4.25;;;9.10;94.50;;;;;;5092184;28;20132;-80
2022/04/27 01:35:52;;;;;;;5.15;4.40;;;9.20;94.60;;;;;;5086537;28;20027;-79
2022/04/27 01:38:18;;;;;;;6.35;4.20;;;9.20;94.60;;;;;;5092657;28;20032;-77
2022/04/27 01:40:51;;;;;;;6.80;4.82;;;9.10;94.50;;;;;;5094469;28;20030;-83
2022/04/27 01:43:17;;;;;;;7.28;4.47;;;9.10;94.50;;;;;;5086542;28;20475;-81
2022/04/27 01:45:43;;;;;;;8.27;4.68;;;9.10;94.60;;;;;;5088483;28;20142;-80
2022/04/27 01:48:10;;;;;;;4.97;4.28;;;9.00;94.60;;;;;;5089718;28;20028;-81
2022/04/27 01:50:35;;;;;;;4.70;3.92;;;9.00;94.60;;;;;;5095568;28;20487;-80
2022/04/27 01:55:45;;;;;;;4.78;3.90;;;8.90;94.80;;;;;;5089885;28;20070;-79
2022/04/27 01:58:10;;;;;;;4.07;3.67;;;8.90;95.00;;;;;;5090790;28;21743;-79
2022/04/27 02:00:37;;;;;;;5.22;4.05;;;8.90;94.80;;;;;;5087241;28;20051;-78
2022/04/27 02:03:03;;;;;;;5.43;4.93;;;8.90;94.80;;;;;;5089997;28;20028;-79
2022/04/27 02:05:29;;;;;;;5.55;4.65;;;8.90;94.90;;;;;;5089140;28;20375;-80
2022/04/27 02:07:54;;;;;;;6.50;4.30;;;8.90;94.90;;;;;;5094362;28;20027;-81
2022/04/27 02:10:20;;;;;;;5.05;4.45;;;8.80;94.90;;;;;;5100346;28;20380;-79
2022/04/27 02:12:45;;;;;;;5.20;4.15;;;8.80;94.90;;;;;;5110101;28;20026;-78
2022/04/27 02:15:11;;;;;;;4.88;4.15;;;8.80;95.10;;;;;;5105015;28;20376;-81
2022/04/27 02:17:36;;;;;;;4.95;4.40;;;8.80;95.20;;;;;;5097778;28;20024;-78
2022/04/27 02:20:03;;;;;;;4.97;4.13;;;8.80;95.30;;;;;;5110398;28;20034;-79
2022/04/27 02:22:28;;;;;;;5.65;4.43;;;8.80;95.40;;;;;;5087637;28;20036;-79
2022/04/27 02:24:54;;;;;;;8.60;4.82;;;8.80;95.40;;;;;;5104551;28;20024;-78
2022/04/27 02:27:20;;;;;;;5.43;4.22;;;8.80;95.40;;;;;;5098571;28;20082;-79
2022/04/27 02:29:46;;;;;;;4.65;4.00;;;8.70;95.40;;;;;;5095104;28;20023;-80
2022/04/27 02:32:12;;;;;;;6.53;4.90;;;8.70;95.50;;;;;;5095831;28;20384;-79
2022/04/27 02:34:38;;;;;;;5.05;4.55;;;8.70;95.50;;;;;;5112919;28;20089;-79
2022/04/27 02:37:05;;;;;;;5.25;4.05;;;8.70;95.60;;;;;;5096587;28;20111;-79
2022/04/27 02:39:31;;;;;;;6.97;4.72;;;8.70;95.60;;;;;;5111286;28;20383;-79
2022/04/27 02:41:56;;;;;;;4.72;4.00;;;8.80;95.70;;;;;;5095397;28;20024;-78
2022/04/27 02:44:22;;;;;;;6.82;4.38;;;8.80;95.70;;;;;;5105009;28;20573;-79
2022/04/27 02:46:47;;;;;;;5.93;4.43;;;8.80;95.70;;;;;;5085376;28;20024;-80
2022/04/27 02:51:57;;;;;;;6.82;4.80;;;8.90;95.60;;;;;;5095224;28;20116;-79
2022/04/27 02:54:23;;;;;;;6.65;4.60;;;8.90;95.70;;;;;;5099879;27;20115;-78
2022/04/27 02:56:49;;;;;;;7.47;4.32;;;8.90;95.60;;;;;;5087917;28;20156;-78
2022/04/27 02:59:15;;;;;;;7.00;4.38;;;8.90;95.70;;;;;;5092901;28;20032;-79
2022/04/27 03:01:41;;;;;;;5.15;4.65;;;9.00;95.60;;;;;;5088072;28;20024;-80
2022/04/27 03:04:08;;;;;;;5.32;4.45;;;9.00;95.60;;;;;;5093890;28;20461;-79
2022/04/27 03:06:34;;;;;;;5.30;4.80;;;9.10;95.60;;;;;;5090880;28;20028;-77
2022/04/27 03:08:59;;;;;;;7.70;4.25;;;9.10;95.70;;;;;;5109538;28;20073;-79
2022/04/27 03:11:25;;;;;;;5.38;4.72;;;9.10;95.70;;;;;;5106805;28;20103;-78
2022/04/27 03:13:50;;;;;;;5.50;4.47;;;9.10;95.70;;;;;;5115716;28;20028;-79
2022/04/27 03:16:16;;;;;;;5.90;4.15;;;9.10;95.60;;;;;;5090073;28;20024;-79
2022/04/27 03:18:42;;;;;;;5.55;4.75;;;9.10;95.50;;;;;;5104372;28;20024;-79
2022/04/27 03:21:08;;;;;;;7.75;4.45;;;9.20;95.50;;;;;;5099652;27;20524;-80
2022/04/27 03:23:34;;;;;;;4.80;4.07;;;9.20;95.50;;;;;;5104416;28;20112;-80
2022/04/27 03:25:59;;;;;;;6.70;4.22;;;9.20;95.50;;;;;;5077056;28;20051;-78
2022/04/27 03:28:25;;;;;;;5.63;4.40;;;9.30;95.40;;;;;;5073206;28;20031;-81
2022/04/27 03:30:50;;;;;;;10.70;4.15;;;9.30;95.40;;;;;;5086617;28;20085;-80
2022/04/27 03:33:16;;;;;;;6.25;3.75;;;9.30;95.30;;;;;;5092985;28;20032;-80
2022/04/27 03:35:42;;;;;;;7.57;5.32;;;9.30;95.30;;;;;;5087498;28;20074;-79
2022/04/27 03:38:09;;;;;;;5.50;4.50;;;9.30;95.20;;;;;;5071278;28;20060;-78
2022/04/27 03:40:35;;;;;;;5.47;4.05;;;9.30;95.30;;;;;;5084205;28;20027;-79
2022/04/27 03:43:02;;;;;;;6.75;4.38;;;9.30;95.40;;;;;;5092306;28;20526;-79
2022/04/27 03:45:27;;;;;;;6.95;4.35;;;9.30;95.30;;;;;;5087748;28;20035;-79
2022/04/27 03:47:53;;;;;;;5.18;4.47;;;9.30;95.20;;;;;;5092495;28;20666;-80
2022/04/27 03:50:18;;;;;;;7.68;4.63;;;9.30;95.40;;;;;;5087418;28;20086;-79
2022/04/27 03:52:44;;;;;;;5.38;4.38;;;9.40;95.40;;;;;;5087258;28;20691;-81
2022/04/27 03:55:11;;;;;;;5.72;4.00;;;9.40;95.20;;;;;;5096479;28;20081;-78
2022/04/27 03:57:39;;;;;;;5.05;3.75;;;9.40;95.20;;;;;;5087042;28;20036;-80
2022/04/27 04:00:09;;;;;;;6.22;4.32;;;9.40;95.30;;;;;;5092477;28;20542;-80
2022/04/27 04:02:36;;;;;;;6.30;4.43;;;9.50;95.20;;;;;;5090319;28;20035;-81
2022/04/27 04:05:01;;;;;;;5.90;4.05;;;9.50;95.20;;;;;;5091216;28;20024;-81
2022/04/27 04:07:27;;;;;;;6.13;3.90;;;9.50;95.10;;;;;;5089601;28;20024;-82
2022/04/27 04:09:52;;;;;;;9.55;4.65;;;9.60;95.10;;;;;;5091068;28;20089;-85
2022/04/27 04:12:18;;;;;;;9.38;5.03;;;9.60;95.00;;;;;;5092129;28;20051;-82
2022/04/27 04:14:43;;;;;;;7.63;4.45;;;9.60;94.90;;;;;;5099778;28;20028;-83
2022/04/27 04:17:09;;;;;;;7.15;4.65;;;9.60;94.70;;;;;;5101287;28;20454;-80
2022/04/27 04:19:35;;;;;;;7.38;4.40;;;9.70;94.90;;;;;;5092923;28;20024;-83
2022/04/27 04:22:01;;;;;;;8.15;5.25;;;9.70;94.70;;;;;;5088964;28;20100;-82
2022/04/27 04:24:26;;;;;;;5.93;4.80;;;9.80;94.80;;;;;;5090124;28;20475;-81
2022/04/27 04:29:37;;;;;;;6.50;4.82;;;9.90;94.70;;;;;;5091818;28;20069;-82
2022/04/27 04:32:03;;;;;;;6.40;3.95;;;10.00;94.90;;;;;;5090153;28;20027;-82
2022/04/27 04:34:28;;;;;;;8.27;5.03;;;10.00;94.50;;;;;;5088376;28;20040;-79
2022/04/27 04:36:54;;;;;;;5.80;4.55;;;10.10;94.50;;;;;;5087402;28;20297;-80
2022/04/27 04:39:20;;;;;;;5.60;4.40;;;10.10;94.40;;;;;;5091345;28;20024;-83
2022/04/27 04:41:46;;;;;;;5.60;4.10;;;10.20;94.30;;;;;;5091781;28;20024;-83
2022/04/27 04:44:11;;;;;;;7.03;3.83;;;10.20;94.30;;;;;;5092175;28;20028;-84
2022/04/27 04:46:36;;;;;;;8.02;4.72;;;10.30;94.30;;;;;;5089707;28;20471;-82
2022/04/27 04:49:02;;;;;;;7.65;5.20;;;10.30;94.30;;;;;;5093646;28;20031;-82
2022/04/27 04:51:27;;;;;;;5.30;4.32;;;10.40;94.40;;;;;;5088626;28;20032;-82
2022/04/27 04:53:54;;;;;;;6.90;5.03;;;10.40;94.40;;;;;;5093317;28;20172;-81
2022/04/27 04:56:20;;;;;;;7.07;5.25;;;10.40;94.40;;;;;;5082663;28;20533;-81
2022/04/27 04:58:46;;;;;;;9.48;4.95;;;10.40;94.40;;;;;;5079750;28;20036;-80
2022/04/27 05:01:11;;;;;;;7.78;5.22;;;10.40;94.60;;;;;;5081459;28;20388;-82
2022/04/27 05:03:38;;;;;;;7.72;5.55;;;10.40;94.40;;;;;;5084455;28;20050;-82
2022/04/27 05:06:04;;;;;;;7.25;5.70;;;10.40;94.30;;;;;;5091754;28;20019;-82
2022/04/27 05:08:29;;;;;;;8.18;5.90;;;10.50;94.20;;;;;;5088355;28;21196;-81
2022/04/27 05:10:55;;;;;;;7.60;5.97;;;10.40;94.30;;;;;;5096098;28;20019;-81
2022/04/27 05:13:20;;;;;;;8.50;5.45;;;10.40;94.20;;;;;;5085203;28;20415;-81
2022/04/27 05:15:47;;;;;;;8.50;5.93;;;10.50;94.30;;;;;;5082988;28;20402;-82
2022/04/27 05:18:12;;;;;;;8.18;5.97;;;10.50;94.40;;;;;;5086361;28;20632;-82
2022/04/27 05:20:38;;;;;;;12.63;4.88;;;10.60;94.20;;;;;;5091601;28;20032;-82
2022/04/27 05:23:04;;;;;;;6.57;5.00;;;10.70;94.10;;;;;;5096224;28;20027;-81
2022/04/27 05:25:30;;;;;;;6.85;4.90;;;10.80;94.10;;;;;;5100539;28;20031;-81
2022/04/27 05:27:56;;;;;;;5.90;4.82;;;10.90;93.90;;;;;;5104729;28;20087;-82
2022/04/27 05:33:06;;;;;;;16.15;5.60;;;11.10;93.90;;;;;;5089868;28;20093;-82
2022/04/27 05:35:39;;;;;;;8.77;5.18;;;11.20;93.40;;;;;;5078635;28;20020;-83
2022/04/27 05:38:05;;;;;;;8.13;4.85;;;11.20;93.50;;;;;;5085141;28;20046;-82
2022/04/27 05:40:30;;;;;;;5.57;4.10;;;11.20;93.30;;;;;;5078824;28;20129;-82
2022/04/27 05:42:56;;;;;;;5.47;4.20;;;11.30;93.00;;;;;;5068828;28;20077;-82
2022/04/27 05:45:21;;;;;;;5.03;3.58;;;11.40;92.60;;;;;;5080308;28;20054;-82
2022/04/27 05:47:47;;;;;;;9.73;3.72;;;11.40;92.40;;;;;;5088465;28;20031;-83
2022/04/27 05:50:12;;;;;;;10.70;3.75;;;11.50;92.20;;;;;;5083988;28;20128;-82
2022/04/27 05:52:52;;;;;;;7.05;4.00;;;11.50;92.10;;;;;;5089625;28;20438;-82
2022/04/27 05:55:21;;;;;;;5.07;3.55;;;11.50;92.30;;;;;;5088034;28;20496;-82
2022/04/27 05:57:47;;;;;;;7.15;3.47;;;11.60;92.30;;;;;;5078838;28;20028;-81
2022/04/27 06:00:14;;;;;;;5.45;3.78;;;11.60;92.10;;;;;;5068386;28;20028;-83
2022/04/27 06:02:39;;;;;;;6.03;4.22;;;11.60;92.10;;;;;;5077094;28;20028;-83
2022/04/27 06:05:08;;;;;;;4.55;3.30;;;11.70;91.70;;;;;;5088634;28;20028;-83
2022/04/27 06:07:35;;;;;;;6.60;3.40;;;11.70;91.80;;;;;;5081235;28;20028;-82
2022/04/27 06:10:03;;;;;;;6.03;3.83;;;11.80;91.70;;;;;;5087424;28;20024;-82
2022/04/27 06:12:34;;;;;;;4.80;3.53;;;12.00;91.60;;;;;;5080350;28;20024;-83
2022/04/27 06:15:00;;;;;;;3.90;3.35;;;12.10;91.10;;;;;;5087745;28;20063;-83
2022/04/27 06:17:26;;;;;;;6.07;4.15;;;12.20;90.90;;;;;;5082292;28;20044;-83
2022/04/27 06:19:51;;;;;;;5.65;3.75;;;12.30;91.00;;;;;;5088686;28;20614;-83
2022/04/27 06:22:22;;;;;;;4.88;3.67;;;12.40;90.80;;;;;;5088636;28;20039;-83
2022/04/27 06:24:47;;;;;;;4.55;3.33;;;12.40;90.20;;;;;;5087142;28;20031;-83
2022/04/27 06:27:13;;;;;;;5.60;3.78;;;12.50;90.10;;;;;;5073690;28;20024;-83
2022/04/27 06:29:38;;;;;;;5.82;3.95;;;12.60;89.80;;;;;;5071434;28;20043;-83
2022/04/27 06:32:04;;;;;;;5.45;3.75;;;12.60;90.20;;;;;;5084318;28;20031;-83
2022/04/27 06:34:29;;;;;;;6.70;4.15;;;12.70;89.50;;;;;;5087745;28;20024;-83
2022/04/27 06:36:55;;;;;;;4.20;3.13;;;12.80;90.10;;;;;;5083560;28;20043;-83
2022/04/27 06:39:21;;;;;;;4.78;3.10;;;12.80;89.20;;;;;;5086668;28;20269;-83
2022/04/27 06:41:46;;;;;;;8.15;3.90;;;12.80;88.60;;;;;;5079778;28;20040;-81
2022/04/27 06:44:12;;;;;;;6.45;3.67;;;13.00;89.90;;;;;;5075572;28;20032;-80
2022/04/27 06:46:37;;;;;;;7.85;3.45;;;13.10;88.20;;;;;;5074888;28;20364;-81
2022/04/27 06:49:03;;;;;;;5.57;3.10;;;13.20;88.50;;;;;;5077000;28;20025;-81
2022/04/27 06:51:28;;;;;;;6.57;3.20;;;13.30;87.30;;;;;;5069662;28;20465;-81
2022/04/27 06:53:54;;;;;;;4.15;3.28;;;13.40;86.80;;;;;;5077477;28;20734;-81
2022/04/27 06:56:19;;;;;;;4.78;3.65;;;13.40;87.40;;;;;;5090609;28;20401;-82
2022/04/27 06:58:45;;;;;;;5.90;3.50;;;13.30;87.60;;;;;;5092397;28;20513;-81
2022/04/27 07:01:10;;;;;;;7.00;4.25;;;13.40;87.50;;;;;;5091902;28;20028;-81
2022/04/27 07:03:38;;;;;;;4.32;3.60;;;13.40;87.50;;;;;;5092640;28;20468;-83
2022/04/27 07:06:04;;;;;;;5.63;3.78;;;13.30;88.10;;;;;;5091048;28;20020;-81
2022/04/27 07:08:30;;;;;;;6.47;4.25;;;13.40;88.10;;;;;;5092543;28;20445;-81
2022/04/27 07:10:55;;;;;;;7.35;3.75;;;13.50;88.40;;;;;;5091072;28;20716;-81
2022/04/27 07:13:22;;;;;;;6.40;3.50;;;13.70;88.30;;;;;;5091120;28;20036;-82
2022/04/27 07:15:48;;;;;;;5.05;3.60;;;13.90;87.80;;;;;;5090811;28;20024;-81
2022/04/27 07:18:13;;;;;;;5.65;4.00;;;14.00;87.10;;;;;;5092279;28;20369;-82
2022/04/27 07:20:39;;;;;;;7.05;3.45;;;14.10;86.20;;;;;;5079011;28;20465;-81
2022/04/27 07:23:05;;;;;;;6.65;4.10;;;14.30;86.90;;;;;;5089302;28;20357;-82
2022/04/27 07:25:30;;;;;;;7.80;3.33;;;14.40;85.60;;;;;;5091320;28;20135;-81
2022/04/27 07:27:56;;;;;;;5.03;3.67;;;14.60;85.40;;;;;;5091808;28;20032;-82
2022/04/27 07:30:23;;;;;;;4.38;3.58;;;14.70;83.80;;;;;;5091034;28;20085;-80
2022/04/27 07:32:49;;;;;;;6.00;4.10;;;14.70;86.10;;;;;;5091594;28;20025;-80
2022/04/27 07:35:15;;;;;;;5.28;4.20;;;14.90;85.50;;;;;;5091143;28;20130;-80
2022/04/27 07:37:40;;;;;;;5.30;3.90;;;15.00;85.70;;;;;;5091420;28;20027;-80
2022/04/27 07:40:13;;;;;;;9.90;3.83;;;15.20;84.30;;;;;;5091120;28;20020;-80
2022/04/27 07:42:39;;;;;;;4.95;3.80;;;15.20;84.20;;;;;;5091918;28;20024;-79
2022/04/27 07:45:06;;;;;;;4.43;3.58;;;15.30;84.00;;;;;;5090075;28;20119;-82
2022/04/27 07:47:39;;;;;;;6.35;3.45;;;15.40;83.30;;;;;;5092900;28;20063;-81
2022/04/27 07:50:07;;;;;;;4.53;3.70;;;15.50;82.90;;;;;;5087146;28;20035;-82
2022/04/27 07:52:33;;;;;;;6.07;4.40;;;15.50;81.40;;;;;;5086537;28;20020;-81
2022/04/27 07:54:58;;;;;;;7.03;3.92;;;15.40;82.10;;;;;;5090892;28;20036;-81
2022/04/27 07:57:29;;;;;;;4.45;3.65;;;15.20;82.10;;;;;;5089167;28;20031;-81
2022/04/27 07:59:55;;;;;;;4.55;3.60;;;15.20;82.00;;;;;;5100694;28;20027;-81
2022/04/27 08:02:20;;;;;;;4.57;3.88;;;15.00;82.00;;;;;;5090835;28;20028;-81
2022/04/27 08:04:46;;;;;;;4.90;3.63;;;14.90;83.30;;;;;;5091614;28;20032;-81
2022/04/27 08:07:11;;;;;;;6.18;3.58;;;14.80;83.10;;;;;;5087521;28;20020;-81
2022/04/27 08:09:36;;;;;;;6.75;3.78;;;14.80;83.10;;;;;;5090341;28;20032;-82
2022/04/27 08:12:02;;;;;;;4.15;3.30;;;14.80;83.80;;;;;;5090269;28;20358;-81
2022/04/27 08:14:28;;;;;;;6.10;3.83;;;14.70;82.80;;;;;;5090681;28;20036;-81
2022/04/27 08:16:54;;;;;;;4.72;3.88;;;14.80;84.30;;;;;;5084829;28;20089;-82
2022/04/27 08:19:20;;;;;;;6.60;4.50;;;14.70;83.00;;;;;;5071158;28;20028;-79
2022/04/27 08:21:45;;;;;;;6.38;4.35;;;14.80;82.60;;;;;;5078447;28;20510;-80
2022/04/27 08:24:11;;;;;;;4.50;3.80;;;15.00;83.00;;;;;;5090396;28;20048;-80
2022/04/27 08:26:37;;;;;;;4.82;3.70;;;15.10;83.50;;;;;;5089794;28;20022;-80
2022/04/27 08:29:02;;;;;;;5.57;3.33;;;15.10;83.10;;;;;;5090230;28;20084;-81
2022/04/27 08:31:28;;;;;;;6.10;4.22;;;15.10;81.40;;;;;;5090283;28;20106;-80
2022/04/27 08:33:53;;;;;;;5.78;3.55;;;15.00;82.10;;;;;;5086546;28;20036;-83
2022/04/27 08:36:18;;;;;;;4.75;3.60;;;15.00;82.00;;;;;;5070178;28;20103;-80
2022/04/27 08:38:44;;;;;;;4.50;3.78;;;15.00;83.00;;;;;;5090212;28;20756;-81
2022/04/27 08:41:10;;;;;;;3.55;3.10;;;14.90;81.70;;;;;;5087417;28;20055;-81
2022/04/27 08:43:35;;;;;;;4.18;3.70;;;14.90;82.50;;;;;;5081796;28;20071;-80
2022/04/27 08:46:03;;;;;;;5.45;3.58;;;14.90;82.30;;;;;;5088645;28;20124;-81
2022/04/27 08:48:30;;;;;;;6.20;3.95;;;14.90;83.00;;;;;;5090038;28;20031;-80
2022/04/27 08:50:56;;;;;;;6.45;3.78;;;14.90;84.50;;;;;;5089197;28;20459;-80
2022/04/27 08:53:22;;;;;;;5.95;3.33;;;14.90;82.10;;;;;;5089441;28;20119;-80
2022/04/27 08:55:47;;;;;;;5.22;4.13;;;15.00;82.50;;;;;;5088900;28;20396;-80
2022/04/27 08:58:17;;;;;;;4.18;3.20;;;15.20;83.40;;;;;;5089561;28;20118;-80
2022/04/27 09:00:44;;;;;;;5.68;4.50;;;15.40;80.50;;;;;;5088624;28;20031;-81
2022/04/27 09:03:23;;;;;;;7.78;4.35;;;15.40;81.60;;;;;;5090450;28;20457;-80
2022/04/27 09:06:00;;;;;;;5.03;3.67;;;15.60;83.20;;;;;;5085590;28;20135;-80
2022/04/27 09:08:49;;;;;;;3.35;3.00;;;15.80;79.00;;;;;;5084010;28;20102;-80
2022/04/27 09:11:17;;;;;;;3.65;2.83;;;15.70;74.50;;;;;;5088702;28;20094;-80
2022/04/27 09:13:50;;;;;;;4.00;3.22;;;15.70;78.10;;;;;;5090569;28;20524;-81
2022/04/27 09:16:18;;;;;;;7.72;3.30;;;15.90;79.60;;;;;;5086688;28;20036;-81
2022/04/27 09:21:57;;;;;;;3.13;2.63;;;16.40;76.70;;;;;;5089085;28;20046;-81
2022/04/27 09:24:22;;;;;;;5.10;3.15;;;16.60;74.80;;;;;;5089733;28;20020;-81
2022/04/27 09:27:12;;;;;;;6.20;3.45;;;16.70;74.40;;;;;;5088615;28;20103;-81
2022/04/27 09:29:37;;;;;;;4.88;3.28;;;17.00;75.60;;;;;;5088934;28;20028;-81
2022/04/27 09:32:04;;;;;;;3.33;2.55;;;17.20;74.90;;;;;;5084321;28;20107;-80
2022/04/27 09:34:46;;;;;;;4.82;2.92;;;17.20;71.10;;;;;;5069805;28;20035;-81
2022/04/27 09:37:18;;;;;;;4.43;2.95;;;17.40;67.50;;;;;;5075773;28;20407;-81
2022/04/27 09:39:45;;;;;;;4.20;3.00;;;17.30;67.10;;;;;;5077412;28;20086;-81
2022/04/27 09:42:12;;;;;;;3.75;2.33;;;17.30;68.70;;;;;;5079744;28;20027;-81
2022/04/27 09:44:38;;;;;;;3.50;2.35;;;17.50;69.30;;;;;;5089430;28;20368;-80
2022/04/27 09:47:06;;;;;;;2.67;2.42;;;17.60;64.70;;;;;;5082936;28;20028;-81
2022/04/27 09:49:34;;;;;;;5.22;2.97;;;17.40;65.60;;;;;;5087077;28;20140;-82
2022/04/27 09:52:00;;;;;;;4.30;2.72;;;17.30;64.90;;;;;;5084376;28;20031;-80
2022/04/27 09:54:30;;;;;;;3.33;2.55;;;17.40;67.40;;;;;;5082404;28;20036;-81
2022/04/27 09:57:08;;;;;;;3.97;2.50;;;17.50;67.50;;;;;;5087787;28;20023;-81
2022/04/27 09:59:38;;;;;;;5.05;2.30;;;17.80;67.30;;;;;;5076598;28;20024;-82
2022/04/27 10:02:08;;;;;;;6.72;2.78;;;17.90;65.70;;;;;;5088234;28;20039;-81
2022/04/27 10:04:35;;;;;;;6.00;3.45;;;18.10;61.90;;;;;;5088501;28;20379;-82
2022/04/27 10:07:05;;;;;;;3.17;2.60;;;18.30;62.20;;;;;;5087784;28;20016;-82
2022/04/27 10:09:31;;;;;;;4.03;2.75;;;18.30;64.20;;;;;;5088485;28;20143;-82
2022/04/27 10:11:59;;;;;;;2.72;2.35;;;18.60;61.30;;;;;;5087009;28;20027;-81
2022/04/27 10:14:26;;;;;;;4.30;2.65;;;18.50;60.60;;;;;;5088674;28;20407;-82
2022/04/27 10:16:53;;;;;;;3.30;2.40;;;18.40;59.80;;;;;;5087300;28;20024;-82
2022/04/27 10:19:19;;;;;;;4.53;2.67;;;18.50;63.50;;;;;;5086223;28;20020;-81
2022/04/27 10:21:56;;;;;;;3.83;2.50;;;18.50;59.10;;;;;;5088492;28;20028;-81
2022/04/27 10:24:46;;;;;;;5.35;2.33;;;18.40;62.60;;;;;;5088956;28;20109;-82
2022/04/27 10:27:14;;;;;;;3.35;2.65;;;18.70;62.40;;;;;;5088040;28;20072;-82
2022/04/27 10:29:40;;;;;;;5.32;2.40;;;18.90;62.10;;;;;;5081038;28;20030;-81
2022/04/27 10:32:06;;;;;;;4.53;2.80;;;18.90;59.20;;;;;;5071865;28;20024;-81
2022/04/27 10:34:33;;;;;;;3.88;2.70;;;18.90;60.60;;;;;;5071982;28;20044;-81
2022/04/27 10:37:00;;;;;;;4.25;2.42;;;19.20;62.20;;;;;;5070993;28;20027;-82
2022/04/27 10:39:27;;;;;;;4.15;2.35;;;19.10;59.20;;;;;;5075786;28;20054;-81
2022/04/27 10:41:58;;;;;;;2.72;2.38;;;19.20;62.30;;;;;;5092028;28;20024;-81
2022/04/27 10:44:50;;;;;;;3.08;2.63;;;19.30;61.80;;;;;;5091236;28;20492;-81
2022/04/27 10:47:19;;;;;;;4.87;2.10;;;19.60;60.10;;;;;;5091143;28;20491;-84
2022/04/27 10:49:50;;;;;;;5.32;2.83;;;20.00;59.60;;;;;;5091199;28;20270;-82
2022/04/27 10:52:16;;;;;;;4.32;2.05;;;20.10;57.90;;;;;;5089724;28;20024;-82
2022/04/27 10:54:42;;;;;;;5.32;2.47;;;20.00;58.00;;;;;;5092080;28;20039;-81
2022/04/27 10:57:17;;;;;;;2.47;2.15;;;20.10;58.80;;;;;;5087624;28;20047;-84
2022/04/27 10:59:47;;;;;;;4.47;2.33;;;20.20;58.00;;;;;;5097945;28;20024;-85
2022/04/27 11:02:36;;;;;;;3.88;2.67;;;19.90;57.80;;;;;;5084003;28;20446;-84
2022/04/27 11:05:03;;;;;;;4.53;2.60;;;19.90;58.20;;;;;;5087890;28;20027;-84
2022/04/27 11:07:29;;;;;;;6.13;2.35;;;19.90;58.70;;;;;;5086278;28;20017;-83
2022/04/27 11:10:11;;;;;;;3.25;2.63;;;19.80;57.40;;;;;;5078947;28;20700;-84
2022/04/27 11:12:39;;;;;;;4.32;2.63;;;19.70;56.20;;;;;;5084971;28;20119;-84
2022/04/27 11:15:06;;;;;;;4.30;2.80;;;19.60;56.70;;;;;;5088848;28;20051;-85
2022/04/27 11:17:34;;;;;;;3.90;2.67;;;19.60;57.10;;;;;;5087371;28;20028;-84
2022/04/27 11:20:02;;;;;;;4.30;2.22;;;19.60;57.50;;;;;;5089951;28;20376;-84
2022/04/27 11:22:35;;;;;;;3.83;2.95;;;19.50;57.60;;;;;;5079579;28;20445;-83
2022/04/27 11:25:00;;;;;;;3.95;2.80;;;19.60;56.80;;;;;;5091048;28;20016;-84
2022/04/27 11:27:27;;;;;;;7.22;2.58;;;19.50;57.20;;;;;;5089353;28;20377;-83
2022/04/27 11:29:54;;;;;;;9.82;2.70;;;19.60;59.40;;;;;;5111018;28;20526;-83
2022/04/27 11:32:19;;;;;;;2.85;2.55;;;19.70;56.80;;;;;;5083591;28;20583;-83
2022/04/27 11:34:49;;;;;;;4.75;2.83;;;19.90;58.00;;;;;;5089868;28;20142;-83
2022/04/27 11:37:17;;;;;;;5.63;2.90;;;20.10;59.50;;;;;;5088724;28;20073;-85
2022/04/27 11:39:44;;;;;;;3.45;2.58;;;20.30;58.30;;;;;;5090627;28;20156;-83
2022/04/27 11:42:12;;;;;;;3.67;2.58;;;20.50;56.70;;;;;;5090994;28;20020;-84
2022/04/27 11:44:40;;;;;;;3.17;2.38;;;20.40;55.70;;;;;;5091015;28;20020;-84
2022/04/27 11:47:26;;;;;;;3.33;2.47;;;20.50;57.20;;;;;;5092732;28;20032;-84
2022/04/27 11:49:56;;;;;;;5.18;2.30;;;20.60;54.50;;;;;;5094389;28;20058;-84
2022/04/27 11:52:22;;;;;;;4.93;2.97;;;20.80;55.50;;;;;;5092115;28;20031;-85
2022/04/27 11:54:48;;;;;;;6.63;3.00;;;20.80;53.40;;;;;;5092130;28;20361;-85
2022/04/27 11:57:22;;;;;;;4.80;2.90;;;20.80;55.70;;;;;;5090342;28;20123;-84
2022/04/27 11:59:57;;;;;;;3.67;2.53;;;20.90;54.20;;;;;;5091293;28;20076;-86
2022/04/27 12:02:24;;;;;;;2.92;2.45;;;20.90;54.00;;;;;;5093473;28;20048;-84
2022/04/27 12:04:53;;;;;;;3.42;2.22;;;21.00;51.30;;;;;;5086315;28;20039;-84
2022/04/27 12:07:22;;;;;;;6.55;2.53;;;21.00;51.90;;;;;;5077144;28;20739;-84
2022/04/27 12:10:09;;;;;;;3.70;2.67;;;20.70;52.70;;;;;;5069441;28;20037;-84
2022/04/27 12:12:38;;;;;;;2.38;1.98;;;20.50;55.50;;;;;;5083580;28;20020;-84
2022/04/27 12:15:11;;;;;;;2.50;2.13;;;20.40;56.00;;;;;;5092625;28;20544;-83
2022/04/27 12:17:56;;;;;;;6.03;2.72;;;20.50;53.40;;;;;;5090687;28;20020;-83
2022/04/27 12:20:26;;;;;;;2.15;1.95;;;20.80;54.40;;;;;;5091778;28;20055;-83
2022/04/27 12:22:56;;;;;;;4.68;2.33;;;20.90;53.20;;;;;;5093728;28;20088;-83
2022/04/27 12:25:31;;;;;;;2.88;2.47;;;20.80;54.20;;;;;;5092334;28;20115;-84
2022/04/27 12:27:56;;;;;;;4.00;2.75;;;20.80;54.30;;;;;;5090307;28;20046;-84
2022/04/27 12:30:23;;;;;;;6.15;3.08;;;20.90;53.80;;;;;;5091840;28;20016;-85
2022/04/27 12:32:48;;;;;;;3.45;2.38;;;21.10;53.40;;;;;;5086031;28;20173;-84
2022/04/27 12:38:11;;;;;;;3.28;2.70;;;21.60;53.20;;;;;;5086185;28;20032;-83
2022/04/27 12:40:38;;;;;;;2.75;2.30;;;21.60;50.30;;;;;;5087920;28;20024;-84
2022/04/27 12:43:06;;;;;;;3.50;2.28;;;21.50;50.60;;;;;;5086711;28;20476;-84
2022/04/27 12:45:34;;;;;;;6.85;3.28;;;21.50;52.80;;;;;;5088693;28;20044;-84
2022/04/27 12:47:59;;;;;;;3.03;2.63;;;21.60;51.60;;;;;;5082157;28;20026;-84
2022/04/27 12:50:25;;;;;;;3.45;2.83;;;21.70;52.30;;;;;;5089890;28;20032;-87
2022/04/27 12:52:51;;;;;;;8.65;3.08;;;21.80;52.70;;;;;;5088620;28;20068;-84
2022/04/27 12:55:17;;;;;;;2.60;2.38;;;22.10;51.00;;;;;;5080846;28;20415;-84
2022/04/27 12:57:59;;;;;;;6.63;2.40;;;22.40;52.80;;;;;;5091714;28;20028;-85
2022/04/27 13:00:38;;;;;;;3.43;2.50;;;22.70;52.50;;;;;;5085675;28;20032;-84
2022/04/27 13:03:04;;;;;;;3.47;2.55;;;23.10;52.00;;;;;;5085707;28;20273;-84
2022/04/27 13:05:30;;;;;;;4.57;2.53;;;23.40;51.40;;;;;;5084842;28;20024;-83
2022/04/27 13:07:55;;;;;;;3.00;2.47;;;23.70;48.50;;;;;;5080384;28;20529;-84